createdAt,value
2023-04-23T00:01:44.603Z,10.60
2023-04-23T00:04:19.491Z,9.40
2023-04-23T00:06:52.237Z,9.30
2023-04-23T00:09:26.838Z,11.90
2023-04-23T00:12:01.395Z,8.90
2023-04-23T00:14:35.965Z,10.90
2023-04-23T00:17:10.768Z,10.60
2023-04-23T00:19:53.499Z,12.30
2023-04-23T00:22:35.540Z,8.50
2023-04-23T00:28:06.942Z,11.70
2023-04-23T00:30:57.819Z,10.80
2023-04-23T00:33:32.005Z,10.40
2023-04-23T00:36:11.751Z,10.40
2023-04-23T00:38:45.431Z,9.70
2023-04-23T00:41:27.386Z,13.00
2023-04-23T00:44:28.822Z,12.10
2023-04-23T00:47:03.791Z,12.30
2023-04-23T00:49:41.298Z,13.00
2023-04-23T00:52:17.990Z,12.60
2023-04-23T00:54:52.718Z,12.70
2023-04-23T00:57:29.388Z,13.90
2023-04-23T01:00:14.489Z,12.40
2023-04-23T01:02:50.530Z,11.40
2023-04-23T01:05:29.567Z,13.10
2023-04-23T01:08:20.088Z,11.30
2023-04-23T01:11:47.259Z,12.00
2023-04-23T01:14:31.331Z,11.10
2023-04-23T01:17:58.282Z,11.90
2023-04-23T01:20:54.991Z,12.10
2023-04-23T01:31:01.635Z,13.80
2023-04-23T01:34:31.461Z,13.90
2023-04-23T01:37:47.486Z,12.10
2023-04-23T01:52:59.384Z,11.60
2023-04-23T01:56:07.629Z,9.10
2023-04-23T02:06:26.639Z,13.00
2023-04-23T02:12:39.544Z,12.70
2023-04-23T02:15:18.140Z,12.40
2023-04-23T02:18:00.808Z,12.20
2023-04-23T02:20:57.771Z,13.70
2023-04-23T02:24:15.738Z,14.70
2023-04-23T02:27:29.795Z,12.90
2023-04-23T02:30:36.894Z,14.30
2023-04-23T02:33:34.258Z,12.60
2023-04-23T02:40:11.132Z,11.00
2023-04-23T02:46:34.135Z,12.10
2023-04-23T02:49:31.377Z,14.60
2023-04-23T02:55:18.628Z,14.20
2023-04-23T02:58:10.645Z,15.30
2023-04-23T03:00:59.390Z,21.80
2023-04-23T03:03:41.073Z,17.20
2023-04-23T03:06:43.052Z,13.00
2023-04-23T03:09:23.891Z,12.30
2023-04-23T03:12:17.505Z,13.40
2023-04-23T03:15:26.412Z,15.10
2023-04-23T03:18:05.542Z,16.00
2023-04-23T03:20:42.649Z,14.80
2023-04-23T03:23:15.942Z,16.00
2023-04-23T03:25:49.221Z,14.40
2023-04-23T03:28:27.082Z,14.40
2023-04-23T03:31:00.433Z,16.20
2023-04-23T03:33:34.527Z,14.10
2023-04-23T03:36:08.855Z,13.00
2023-04-23T03:38:42.958Z,14.50
2023-04-23T03:41:18.144Z,17.20
2023-04-23T03:43:51.229Z,13.70
2023-04-23T03:46:30.680Z,14.80
2023-04-23T03:49:05.452Z,15.90
2023-04-23T03:51:40.948Z,15.50
2023-04-23T03:54:20.517Z,16.60
2023-04-23T03:57:14.227Z,17.50
2023-04-23T04:00:12.255Z,13.40
2023-04-23T04:02:51.244Z,14.50
2023-04-23T04:05:26.133Z,14.40
2023-04-23T04:08:02.087Z,17.20
2023-04-23T04:10:35.478Z,16.30
2023-04-23T04:13:09.192Z,15.50
2023-04-23T04:15:42.617Z,17.00
2023-04-23T04:18:15.591Z,13.40
2023-04-23T04:20:51.525Z,13.80
2023-04-23T04:23:24.518Z,16.40
2023-04-23T04:25:57.832Z,13.50
2023-04-23T04:28:30.913Z,15.50
2023-04-23T04:31:05.687Z,13.50
2023-04-23T04:33:40.265Z,14.70
2023-04-23T04:36:14.126Z,15.30
2023-04-23T04:38:46.567Z,12.10
2023-04-23T04:41:20.274Z,14.80
2023-04-23T04:43:54.706Z,13.30
2023-04-23T04:46:29.844Z,12.00
2023-04-23T04:49:03.819Z,12.30
2023-04-23T04:51:36.305Z,11.90
2023-04-23T04:54:09.372Z,13.20
2023-04-23T04:56:41.185Z,16.30
2023-04-23T04:59:13.927Z,11.60
2023-04-23T05:01:46.737Z,11.40
2023-04-23T05:04:19.515Z,13.30
2023-04-23T05:06:51.080Z,12.60
2023-04-23T05:09:24.470Z,12.90
2023-04-23T05:11:57.318Z,15.60
2023-04-23T05:14:29.593Z,14.30
2023-04-23T05:17:03.319Z,15.30
2023-04-23T05:19:35.605Z,15.20
2023-04-23T05:22:07.821Z,17.70
2023-04-23T05:24:41.511Z,13.70
2023-04-23T05:27:14.065Z,14.00
2023-04-23T05:29:45.839Z,16.10
2023-04-23T05:32:18.621Z,16.60
2023-04-23T05:34:51.361Z,17.30
2023-04-23T05:39:56.487Z,15.20
2023-04-23T05:44:59.432Z,15.30
2023-04-23T05:47:33.642Z,13.60
2023-04-23T05:50:06.384Z,11.40
2023-04-23T05:52:37.856Z,12.90
2023-04-23T05:55:11.982Z,10.90
2023-04-23T05:57:48.800Z,10.30
2023-04-23T06:00:26.171Z,54.90
2023-04-23T06:02:57.451Z,11.20
2023-04-23T06:05:29.353Z,12.30
2023-04-23T06:08:01.511Z,9.90
2023-04-23T06:10:33.414Z,11.70
2023-04-23T06:13:06.475Z,9.80
2023-04-23T06:18:10.981Z,10.30
2023-04-23T06:20:48.951Z,15.00
2023-04-23T06:23:25.711Z,10.60
2023-04-23T06:25:57.703Z,11.80
2023-04-23T06:28:30.762Z,12.10
2023-04-23T06:31:29.250Z,11.70
2023-04-23T06:34:01.771Z,12.00
2023-04-23T06:36:34.002Z,12.00
2023-04-23T06:39:06.135Z,11.80
2023-04-23T06:41:40.013Z,11.40
2023-04-23T06:44:18.361Z,10.70
2023-04-23T06:46:56.994Z,11.20
2023-04-23T06:49:29.897Z,9.00
2023-04-23T06:54:37.025Z,9.50
2023-04-23T06:57:10.010Z,11.00
2023-04-23T06:59:43.544Z,10.10
2023-04-23T07:02:15.453Z,11.30
2023-04-23T07:04:48.787Z,10.50
2023-04-23T07:07:22.032Z,10.10
2023-04-23T07:12:26.943Z,10.80
2023-04-23T07:15:00.811Z,8.40
2023-04-23T07:17:32.738Z,10.50
2023-04-23T07:20:06.923Z,9.20
2023-04-23T07:22:43.742Z,8.50
2023-04-23T07:25:16.325Z,8.10
2023-04-23T07:27:51.490Z,10.70
2023-04-23T07:30:26.103Z,8.90
2023-04-23T07:32:58.641Z,11.10
2023-04-23T07:35:30.416Z,8.80
2023-04-23T07:38:05.629Z,7.70
2023-04-23T07:40:37.984Z,8.00
2023-04-23T07:43:11.102Z,9.80
2023-04-23T07:45:46.305Z,8.40
2023-04-23T07:48:19.279Z,8.00
2023-04-23T07:50:52.528Z,12.10
2023-04-23T07:55:56.840Z,9.50
2023-04-23T07:58:33.202Z,8.60
2023-04-23T08:01:06.120Z,8.80
2023-04-23T08:03:38.711Z,8.60
2023-04-23T08:06:12.618Z,8.40
2023-04-23T08:08:44.410Z,8.30
2023-04-23T08:11:16.994Z,9.70
2023-04-23T08:13:49.136Z,8.40
2023-04-23T08:16:22.370Z,11.70
2023-04-23T08:19:04.841Z,9.60
2023-04-23T08:21:39.060Z,8.30
2023-04-23T08:24:11.058Z,10.70
2023-04-23T08:26:43.270Z,10.60
2023-04-23T08:29:15.409Z,9.00
2023-04-23T08:31:47.657Z,9.90
2023-04-23T08:34:20.585Z,10.20
2023-04-23T08:39:22.613Z,8.50
2023-04-23T08:41:57.662Z,11.50
2023-04-23T08:44:29.331Z,11.00
2023-04-23T08:47:02.266Z,12.00
2023-04-23T08:49:36.481Z,11.40
2023-04-23T08:52:15.121Z,10.70
2023-04-23T08:54:50.170Z,9.20
2023-04-23T08:57:23.917Z,9.00
2023-04-23T08:59:57.317Z,9.80
2023-04-23T09:02:30.339Z,9.30
2023-04-23T09:05:05.422Z,9.50
2023-04-23T09:07:42.142Z,9.30
2023-04-23T09:10:18.442Z,7.30
2023-04-23T09:12:51.606Z,9.80
2023-04-23T09:15:24.425Z,7.70
2023-04-23T09:17:57.848Z,7.50
2023-04-23T09:20:31.451Z,8.20
2023-04-23T09:23:03.827Z,6.30
2023-04-23T09:25:37.746Z,9.40
2023-04-23T09:28:11.142Z,7.70
2023-04-23T09:30:52.134Z,6.80
2023-04-23T09:33:25.918Z,8.60
2023-04-23T09:35:59.047Z,8.10
2023-04-23T09:41:00.991Z,8.00
2023-04-23T09:43:34.836Z,7.60
2023-04-23T09:46:07.995Z,7.10
2023-04-23T09:48:45.330Z,8.50
2023-04-23T09:51:19.376Z,7.10
2023-04-23T09:53:51.998Z,9.30
2023-04-23T09:58:56.618Z,7.20
2023-04-23T10:01:34.034Z,6.20
2023-04-23T10:04:07.304Z,6.20
2023-04-23T10:06:47.035Z,10.10
2023-04-23T10:09:26.708Z,9.30
2023-04-23T10:12:00.374Z,6.30
2023-04-23T10:14:33.873Z,6.60
2023-04-23T10:17:07.907Z,7.20
2023-04-23T10:19:43.889Z,6.30
2023-04-23T10:22:20.061Z,6.20
2023-04-23T10:24:59.996Z,5.60
2023-04-23T10:27:48.610Z,6.90
2023-04-23T10:30:25.153Z,5.50
2023-04-23T10:32:56.864Z,6.10
2023-04-23T10:35:30.250Z,4.50
2023-04-23T10:38:04.283Z,6.50
2023-04-23T10:40:37.891Z,5.20
2023-04-23T10:45:41.314Z,4.80
2023-04-23T10:48:14.668Z,6.10
2023-04-23T10:51:05.770Z,5.40
2023-04-23T10:53:40.097Z,5.40
2023-04-23T10:56:25.008Z,7.60
2023-04-23T10:58:57.720Z,6.00
2023-04-23T11:01:34.564Z,4.90
2023-04-23T11:04:25.365Z,5.90
2023-04-23T11:07:07.425Z,4.50
2023-04-23T11:09:45.487Z,5.80
2023-04-23T11:12:34.645Z,6.20
2023-04-23T11:15:18.382Z,5.40
2023-04-23T11:18:11.188Z,6.20
2023-04-23T11:20:45.912Z,6.10
2023-04-23T11:23:36.334Z,4.50
2023-04-23T11:26:35.072Z,5.40
2023-04-23T11:29:13.172Z,6.40
2023-04-23T11:32:01.733Z,5.80
2023-04-23T11:34:36.838Z,4.20
2023-04-23T11:37:10.997Z,3.50
2023-04-23T11:39:45.418Z,3.10
2023-04-23T11:42:20.275Z,3.80
2023-04-23T11:44:53.686Z,3.60
2023-04-23T11:47:29.225Z,3.20
2023-04-23T11:50:03.478Z,4.30
2023-04-23T11:52:38.413Z,3.90
2023-04-23T11:55:13.381Z,4.50
2023-04-23T11:57:47.182Z,4.70
2023-04-23T12:00:22.753Z,4.50
2023-04-23T12:07:54.076Z,5.00
2023-04-23T12:10:26.323Z,5.80
2023-04-23T12:12:58.312Z,4.90
2023-04-23T12:15:29.640Z,3.90
2023-04-23T12:18:13.488Z,6.40
2023-04-23T12:20:44.810Z,5.50
2023-04-23T12:23:16.952Z,6.50
2023-04-23T12:25:50.288Z,5.70
2023-04-23T12:28:29.177Z,5.40
2023-04-23T12:31:05.291Z,5.10
2023-04-23T12:33:37.409Z,5.00
2023-04-23T12:36:16.887Z,4.90
2023-04-23T12:38:49.385Z,6.00
2023-04-23T12:41:21.387Z,5.60
2023-04-23T12:43:53.479Z,5.40
2023-04-23T12:46:26.417Z,5.10
2023-04-23T12:48:58.939Z,6.50
2023-04-23T12:51:32.272Z,5.50
2023-04-23T12:54:03.606Z,5.10
2023-04-23T12:56:36.961Z,5.80
2023-04-23T12:59:09.729Z,4.70
2023-04-23T13:01:42.437Z,6.20
2023-04-23T13:04:15.945Z,5.30
2023-04-23T13:06:47.237Z,6.70
2023-04-23T13:09:20.161Z,6.10
2023-04-23T13:11:55.284Z,6.10
2023-04-23T13:14:28.289Z,7.70
2023-04-23T13:17:01.523Z,4.70
2023-04-23T13:19:35.940Z,5.70
2023-04-23T13:22:08.873Z,5.20
2023-04-23T13:24:42.709Z,6.30
2023-04-23T13:27:16.800Z,5.40
2023-04-23T13:29:49.871Z,4.70
2023-04-23T13:32:23.858Z,5.80
2023-04-23T13:35:00.987Z,5.30
2023-04-23T13:37:32.690Z,6.10
2023-04-23T13:40:07.684Z,5.20
2023-04-23T13:42:40.113Z,4.70
2023-04-23T13:45:14.989Z,5.50
2023-04-23T13:47:48.729Z,5.30
2023-04-23T13:50:20.435Z,5.60
2023-04-23T13:52:52.702Z,3.80
2023-04-23T13:57:58.793Z,3.00
2023-04-23T14:00:33.132Z,5.80
2023-04-23T14:03:05.804Z,3.70
2023-04-23T14:05:38.666Z,2.90
2023-04-23T14:08:10.092Z,3.80
2023-04-23T14:10:43.650Z,4.50
2023-04-23T14:13:16.106Z,3.10
2023-04-23T14:18:21.538Z,2.80
2023-04-23T14:20:55.200Z,3.10
2023-04-23T14:23:52.183Z,3.80
2023-04-23T14:26:48.108Z,3.00
2023-04-23T14:29:32.721Z,2.80
2023-04-23T14:32:05.428Z,3.60
2023-04-23T14:34:38.128Z,2.80
2023-04-23T14:37:10.263Z,3.50
2023-04-23T14:39:43.967Z,7.40
2023-04-23T14:42:17.390Z,3.60
2023-04-23T14:44:49.508Z,4.50
2023-04-23T14:49:52.836Z,3.60
2023-04-23T14:52:25.186Z,4.40
2023-04-23T14:54:59.008Z,3.10
2023-04-23T14:57:32.115Z,2.60
2023-04-23T15:00:04.447Z,2.70
2023-04-23T15:02:37.962Z,3.20
2023-04-23T15:05:11.160Z,2.40
2023-04-23T15:07:45.841Z,2.60
2023-04-23T15:10:21.664Z,4.60
2023-04-23T15:13:05.667Z,3.10
2023-04-23T15:15:45.380Z,3.30
2023-04-23T15:18:17.226Z,2.90
2023-04-23T15:20:49.520Z,3.20
2023-04-23T15:23:24.627Z,4.40
2023-04-23T15:25:57.029Z,2.00
2023-04-23T15:28:28.816Z,3.60
2023-04-23T15:31:01.605Z,2.80
2023-04-23T15:33:33.093Z,4.20
2023-04-23T15:36:05.225Z,3.60
2023-04-23T15:38:36.197Z,4.40
2023-04-23T15:41:07.533Z,3.00
2023-04-23T15:43:40.196Z,3.20
2023-04-23T15:48:43.239Z,4.30
2023-04-23T15:53:44.769Z,4.80
2023-04-23T15:56:18.379Z,2.00
2023-04-23T15:58:53.093Z,4.20
2023-04-23T16:01:27.020Z,2.70
2023-04-23T16:04:10.498Z,7.10
2023-04-23T16:06:42.979Z,4.70
2023-04-23T16:09:14.410Z,3.90
2023-04-23T16:11:47.451Z,4.30
2023-04-23T16:14:19.558Z,3.80
2023-04-23T16:16:53.077Z,4.90
2023-04-23T16:19:26.452Z,3.40
2023-04-23T16:21:58.693Z,3.90
2023-04-23T16:24:31.928Z,4.20
2023-04-23T16:27:06.624Z,5.10
2023-04-23T16:29:38.866Z,4.40
2023-04-23T16:32:10.134Z,5.10
2023-04-23T16:34:43.973Z,5.30
2023-04-23T16:37:20.006Z,4.20
2023-04-23T16:40:03.536Z,5.30
2023-04-23T16:43:11.286Z,4.60
2023-04-23T16:52:51.239Z,2.40
2023-04-23T17:04:25.568Z,4.70
2023-04-23T17:06:34.810Z,2.70
2023-04-23T17:09:53.593Z,4.50
2023-04-23T17:12:32.982Z,3.70
2023-04-23T17:15:13.605Z,2.40
2023-04-23T17:21:49.521Z,4.20
2023-04-23T17:24:28.320Z,3.20
2023-04-23T17:28:22.301Z,2.30
2023-04-23T17:31:53.445Z,2.80
2023-04-23T17:34:45.620Z,2.90
2023-04-23T17:37:26.205Z,4.40
2023-04-23T17:39:58.041Z,1.90
2023-04-23T17:42:30.065Z,3.10
2023-04-23T17:45:30.929Z,2.70
2023-04-23T17:48:41.443Z,4.30
2023-04-23T17:51:38.235Z,3.00
2023-04-23T17:54:35.696Z,2.90
2023-04-23T17:57:47.853Z,3.40
2023-04-23T18:00:24.223Z,2.30
2023-04-23T18:03:13.104Z,2.70
2023-04-23T18:05:49.457Z,2.80
2023-04-23T18:08:21.592Z,2.40
2023-04-23T18:10:53.096Z,3.00
2023-04-23T18:13:24.118Z,4.20
2023-04-23T18:15:54.924Z,2.30
2023-04-23T18:18:26.492Z,3.30
2023-04-23T18:20:57.265Z,2.60
2023-04-23T18:23:32.006Z,2.90
2023-04-23T18:26:03.873Z,4.20
2023-04-23T18:28:37.368Z,3.60
2023-04-23T18:31:08.196Z,1.90
2023-04-23T18:33:49.100Z,3.00
2023-04-23T18:36:27.628Z,2.40
2023-04-23T18:39:00.874Z,2.50
2023-04-23T18:41:34.978Z,2.20
2023-04-23T18:44:08.252Z,2.70
2023-04-23T18:46:40.749Z,4.20
2023-04-23T18:49:45.439Z,2.20
2023-04-23T18:52:18.130Z,3.10
2023-04-23T18:54:52.498Z,1.50
2023-04-23T18:57:24.392Z,4.10
2023-04-23T18:59:57.207Z,3.20
2023-04-23T19:02:35.515Z,3.30
2023-04-23T19:05:09.034Z,4.60
2023-04-23T19:07:42.783Z,3.60
2023-04-23T19:10:16.390Z,2.50
2023-04-23T19:12:48.126Z,2.60
2023-04-23T19:15:19.541Z,3.80
2023-04-23T19:17:50.577Z,5.20
2023-04-23T19:20:22.867Z,2.80
2023-04-23T19:22:55.740Z,3.60
2023-04-23T19:27:59.248Z,2.70
2023-04-23T19:30:30.918Z,3.30
2023-04-23T19:33:01.975Z,4.00
2023-04-23T19:35:33.180Z,4.00
2023-04-23T19:38:04.441Z,2.80
2023-04-23T19:40:35.984Z,4.60
2023-04-23T19:43:08.070Z,2.50
2023-04-23T19:45:39.552Z,3.30
2023-04-23T19:48:10.978Z,2.90
2023-04-23T19:50:42.897Z,3.20
2023-04-23T19:53:14.753Z,4.20
2023-04-23T19:55:47.067Z,2.50
2023-04-23T19:58:20.060Z,2.20
2023-04-23T20:00:54.044Z,3.80
2023-04-23T20:03:27.788Z,2.90
2023-04-23T20:06:00.448Z,3.90
2023-04-23T20:08:43.694Z,2.50
2023-04-23T20:11:24.402Z,3.30
2023-04-23T20:14:01.542Z,2.20
2023-04-23T20:16:44.584Z,3.00
2023-04-23T20:22:03.732Z,3.20
2023-04-23T20:24:47.036Z,3.90
2023-04-23T20:27:27.194Z,2.90
2023-04-23T20:30:14.784Z,2.90
2023-04-23T20:32:57.790Z,3.00
2023-04-23T20:35:52.017Z,3.70
2023-04-23T20:41:36.925Z,2.10
2023-04-23T20:44:34.877Z,2.40
2023-04-23T20:47:34.158Z,5.10
2023-04-23T20:50:18.180Z,2.60
2023-04-23T20:53:09.167Z,2.80
2023-04-23T20:55:51.246Z,2.40
2023-04-23T20:58:45.802Z,4.00
2023-04-23T21:01:40.259Z,3.40
2023-04-23T21:04:30.930Z,7.30
2023-04-23T21:07:25.991Z,2.30
2023-04-23T21:10:46.337Z,2.90
2023-04-23T21:13:31.108Z,2.70
2023-04-23T21:16:31.269Z,3.00
2023-04-23T21:19:34.265Z,2.40
2023-04-23T21:22:24.593Z,2.50
2023-04-23T21:25:04.186Z,2.00
2023-04-23T21:27:48.431Z,2.70
2023-04-23T21:30:42.730Z,2.20
2023-04-23T21:33:33.877Z,4.00
2023-04-23T21:36:32.822Z,3.10
2023-04-23T21:39:17.733Z,2.10
2023-04-23T21:41:56.080Z,2.40
2023-04-23T21:44:45.655Z,3.00
2023-04-23T21:47:40.754Z,2.70
2023-04-23T21:50:39.489Z,2.20
2023-04-23T21:53:36.157Z,5.50
2023-04-23T22:02:34.757Z,2.70
2023-04-23T22:08:59.052Z,2.70
2023-04-23T22:12:01.019Z,2.40
2023-04-23T22:24:25.712Z,3.20
2023-04-23T22:27:29.230Z,1.80
2023-04-23T22:30:26.148Z,3.10
2023-04-23T22:33:17.206Z,2.50
2023-04-23T22:36:15.709Z,2.80
2023-04-23T22:39:06.744Z,3.00
2023-04-23T22:42:40.148Z,2.20
2023-04-23T22:45:41.740Z,7.60
2023-04-23T22:48:29.646Z,4.80
2023-04-23T22:51:28.430Z,3.10
2023-04-23T22:57:39.844Z,2.20
2023-04-23T23:00:46.548Z,2.50
2023-04-23T23:09:33.453Z,2.00
2023-04-23T23:12:41.506Z,4.70
2023-04-23T23:26:05.238Z,2.10
2023-04-23T23:28:56.466Z,2.70
2023-04-23T23:32:05.107Z,2.60
2023-04-23T23:34:44.199Z,3.00
2023-04-23T23:37:33.891Z,6.70
2023-04-23T23:50:15.134Z,2.20
2023-04-23T23:56:24.180Z,2.80
